Time;durP1;ratioP1;P1;durP2;ratioP2;P2;SDS_P1;SDS_P2;PMS_P1;PMS_P2;Temp;Humidity;BMP_temperature;BMP_pressure;BME280_temperature;BME280_humidity;BME280_pressure;Samples;Min_cycle;Max_cycle;Signal;HPM_P1;HPM_P2
2023/04/29 00:01:08;;;;;;;11.57;4.68;;;;;;;14.12;67.73;98808.84;5074454;28;20486;-93
2023/04/29 00:03:34;;;;;;;6.00;3.35;;;;;;;13.97;67.85;98794.31;5061692;28;20098;-95
2023/04/29 00:06:00;;;;;;;8.05;3.53;;;;;;;14.04;68.16;98819.00;5060492;28;20490;-95
2023/04/29 00:08:27;;;;;;;11.15;3.40;;;;;;;14.03;68.08;98822.56;5067774;28;20041;-93
2023/04/29 00:10:53;;;;;;;11.30;4.10;;;;;;;14.04;68.56;98838.56;5060834;28;20115;-93
2023/04/29 00:13:20;;;;;;;7.38;3.40;;;;;;;13.87;68.83;98806.28;5059936;28;20127;-93
2023/04/29 00:15:46;;;;;;;11.82;4.13;;;;;;;13.94;68.82;98826.50;5065557;28;20390;-93
2023/04/29 00:18:13;;;;;;;7.82;3.53;;;;;;;13.94;68.58;98837.19;5062435;28;20040;-94
2023/04/29 00:20:39;;;;;;;9.63;3.83;;;;;;;13.86;68.15;98817.94;5065263;28;20053;-91
2023/04/29 00:23:05;;;;;;;11.18;3.45;;;;;;;13.82;67.93;98806.47;5063656;28;20080;-94
2023/04/29 00:25:31;;;;;;;8.35;3.47;;;;;;;13.73;67.45;98794.34;5066514;28;20098;-93
2023/04/29 00:28:00;;;;;;;7.68;3.53;;;;;;;13.76;67.15;98794.22;5058393;28;20040;-93
2023/04/29 00:30:28;;;;;;;8.25;3.50;;;;;;;13.80;66.30;98794.09;5065527;28;20045;-94
2023/04/29 00:32:54;;;;;;;7.45;3.53;;;;;;;13.96;66.44;98827.31;5058958;28;20131;-94
2023/04/29 00:35:20;;;;;;;8.00;3.78;;;;;;;13.75;65.89;98783.59;5060713;28;20063;-93
2023/04/29 00:37:45;;;;;;;7.43;3.25;;;;;;;13.98;65.59;98828.97;5059217;28;20573;-92
2023/04/29 00:40:13;;;;;;;7.72;3.45;;;;;;;13.94;65.60;98810.44;5066176;28;20041;-94
2023/04/29 00:42:40;;;;;;;7.85;3.35;;;;;;;13.73;65.53;98764.94;5059981;28;20040;-95
2023/04/29 00:45:07;;;;;;;4.75;2.90;;;;;;;13.92;63.34;98801.63;5059491;28;20045;-94
2023/04/29 00:47:34;;;;;;;8.70;3.50;;;;;;;13.85;62.45;98776.94;5059512;28;20576;-95
2023/04/29 00:50:00;;;;;;;7.10;3.10;;;;;;;13.92;61.56;98785.56;5072483;28;20068;-94
2023/04/29 00:52:30;;;;;;;6.47;2.75;;;;;;;13.99;60.94;98803.13;5072961;28;20045;-95
2023/04/29 00:54:57;;;;;;;7.57;3.00;;;;;;;13.79;60.79;98779.00;5060912;28;20036;-94
2023/04/29 00:57:22;;;;;;;5.88;2.70;;;;;;;13.79;61.00;98779.00;5059993;28;20037;-94
2023/04/29 00:59:48;;;;;;;4.85;3.05;;;;;;;13.81;60.69;98785.16;5060793;28;20036;-94
2023/04/29 01:02:16;;;;;;;6.07;3.15;;;;;;;13.96;59.91;98817.47;5075696;28;20029;-95
2023/04/29 01:04:43;;;;;;;6.07;3.00;;;;;;;13.84;59.82;98788.56;5041175;28;20136;-94
2023/04/29 01:07:15;;;;;;;6.47;2.90;;;;;;;13.66;59.48;98767.91;5058824;28;20043;-95
2023/04/29 01:09:52;;;;;;;6.22;2.90;;;;;;;13.79;58.92;98787.00;5061884;28;20055;-94
2023/04/29 01:12:21;;;;;;;7.05;2.92;;;;;;;13.69;58.80;98782.03;5061336;28;20045;-95
2023/04/29 01:14:58;;;;;;;5.65;2.90;;;;;;;13.53;58.17;98765.75;5069534;28;20052;-94
2023/04/29 01:17:27;;;;;;;8.07;3.13;;;;;;;13.56;58.43;98764.75;5067002;28;20038;-95
2023/04/29 01:19:57;;;;;;;4.97;2.72;;;;;;;13.75;58.83;98788.94;5069808;28;20409;-95
2023/04/29 01:22:23;;;;;;;4.97;2.75;;;;;;;13.65;58.46;98772.41;5061104;28;20045;-95
2023/04/29 01:24:50;;;;;;;7.80;3.15;;;;;;;13.61;58.01;98775.25;5064642;28;20051;-94
2023/04/29 01:27:30;;;;;;;5.57;2.80;;;;;;;13.52;57.46;98739.09;5062211;28;20090;-95
2023/04/29 01:30:01;;;;;;;6.63;2.80;;;;;;;13.61;57.30;98754.75;5075834;28;20051;-94
2023/04/29 01:32:35;;;;;;;8.93;2.60;;;;;;;13.56;57.22;98754.94;5062225;28;20055;-95
2023/04/29 01:35:10;;;;;;;5.05;2.60;;;;;;;13.43;57.06;98751.00;5070754;28;20074;-95
2023/04/29 01:37:42;;;;;;;4.75;2.67;;;;;;;13.36;57.25;98738.81;5058470;28;20086;-94
2023/04/29 01:40:15;;;;;;;7.65;3.05;;;;;;;13.41;57.39;98757.34;5062118;28;20494;-95
2023/04/29 01:42:45;;;;;;;4.93;2.72;;;;;;;13.47;56.97;98768.66;5069310;28;20059;-96
2023/04/29 01:45:16;;;;;;;5.55;2.80;;;;;;;13.39;57.26;98757.38;5075770;28;20044;-95
2023/04/29 01:47:43;;;;;;;5.20;2.60;;;;;;;13.39;56.91;98759.19;5059516;28;20123;-95
2023/04/29 01:50:10;;;;;;;4.63;2.58;;;;;;;13.48;57.21;98772.19;5058305;28;20067;-94
2023/04/29 01:52:36;;;;;;;6.60;3.00;;;;;;;13.52;58.31;98766.66;5058319;28;20515;-96
2023/04/29 01:55:03;;;;;;;4.20;2.53;;;;;;;13.59;58.26;98790.47;5057869;28;20474;-94
2023/04/29 01:57:30;;;;;;;4.70;2.70;;;;;;;13.32;58.13;98759.44;5059426;28;20118;-94
2023/04/29 01:59:56;;;;;;;6.93;2.67;;;;;;;13.37;58.84;98758.38;5058247;28;20079;-95
2023/04/29 02:02:22;;;;;;;5.07;2.50;;;;;;;13.51;57.88;98769.38;5058103;28;20064;-94
2023/04/29 02:04:49;;;;;;;6.57;2.55;;;;;;;13.40;57.91;98737.75;5060012;28;20045;-94
2023/04/29 02:07:15;;;;;;;5.93;2.80;;;;;;;13.51;58.14;98738.22;5070718;28;20033;-93
2023/04/29 02:09:41;;;;;;;8.05;2.95;;;;;;;13.44;57.61;98725.16;5063284;28;20047;-95
2023/04/29 02:12:07;;;;;;;5.25;2.70;;;;;;;13.55;57.61;98744.28;5056818;28;20418;-95
2023/04/29 02:14:35;;;;;;;5.22;2.80;;;;;;;13.68;57.02;98750.88;5069070;28;20122;-94
2023/04/29 02:17:00;;;;;;;8.02;2.95;;;;;;;13.42;56.81;98714.50;5057551;28;20094;-94
2023/04/29 02:19:26;;;;;;;5.38;2.65;;;;;;;13.56;55.87;98735.34;5057746;28;20045;-94
2023/04/29 02:21:52;;;;;;;6.20;2.78;;;;;;;13.37;55.84;98710.31;5057692;28;20559;-94
2023/04/29 02:24:18;;;;;;;5.82;2.88;;;;;;;13.30;56.23;98694.50;5057645;28;20041;-93
2023/04/29 02:26:44;;;;;;;4.10;2.30;;;;;;;13.57;56.00;98737.09;5057666;28;20040;-95
2023/04/29 02:29:10;;;;;;;7.47;2.65;;;;;;;13.34;55.50;98698.81;5057486;28;20482;-94
2023/04/29 02:31:37;;;;;;;5.57;2.50;;;;;;;13.32;55.81;98711.34;5057605;28;20453;-93
2023/04/29 02:34:03;;;;;;;5.93;2.75;;;;;;;13.34;55.85;98714.84;5061437;28;20045;-94
2023/04/29 02:36:30;;;;;;;4.90;2.28;;;;;;;13.44;55.98;98726.00;5061270;28;20124;-95
2023/04/29 02:38:56;;;;;;;4.88;2.63;;;;;;;13.29;56.00;98698.13;5069132;28;20036;-94
2023/04/29 02:41:22;;;;;;;5.43;2.75;;;;;;;13.18;56.47;98686.06;5068301;28;20122;-94
2023/04/29 02:43:48;;;;;;;4.95;2.55;;;;;;;13.25;56.50;98703.59;5067441;28;20052;-94
2023/04/29 02:46:15;;;;;;;4.70;2.50;;;;;;;13.28;56.46;98693.69;5070759;28;20040;-93
2023/04/29 02:48:42;;;;;;;4.93;2.55;;;;;;;13.34;56.62;98712.16;5062625;28;20052;-95
2023/04/29 02:51:08;;;;;;;5.05;2.80;;;;;;;13.44;56.28;98731.34;5060336;28;20123;-94
2023/04/29 02:53:34;;;;;;;4.95;2.40;;;;;;;13.37;56.41;98718.31;5061073;28;20060;-94
2023/04/29 02:56:00;;;;;;;5.03;2.42;;;;;;;13.45;56.38;98738.47;5061462;28;20048;-94
2023/04/29 02:58:26;;;;;;;5.40;2.58;;;;;;;13.33;56.13;98709.53;5060712;28;20033;-94
2023/04/29 03:00:52;;;;;;;5.03;2.53;;;;;;;13.28;55.92;98691.03;5066533;28;20040;-96
2023/04/29 03:03:18;;;;;;;5.70;2.53;;;;;;;13.48;56.41;98726.78;5060823;28;20044;-95
2023/04/29 03:05:45;;;;;;;6.13;2.42;;;;;;;13.38;55.64;98707.59;5060842;28;20055;-94
2023/04/29 03:08:11;;;;;;;3.78;2.40;;;;;;;13.49;55.97;98723.19;5065063;28;20502;-95
2023/04/29 03:10:38;;;;;;;5.18;2.40;;;;;;;13.40;55.95;98711.03;5075795;28;20035;-95
2023/04/29 03:13:04;;;;;;;5.60;2.50;;;;;;;13.28;56.93;98680.34;5060640;28;20041;-95
2023/04/29 03:15:30;;;;;;;4.90;2.40;;;;;;;13.37;58.18;98711.16;5060460;28;20048;-94
2023/04/29 03:17:56;;;;;;;4.30;2.47;;;;;;;13.29;56.55;98719.50;5060643;28;20111;-95
2023/04/29 03:20:22;;;;;;;4.30;2.47;;;;;;;13.20;55.76;98708.25;5062308;28;20072;-93
2023/04/29 03:22:49;;;;;;;5.82;2.80;;;;;;;13.01;56.38;98678.72;5060377;28;20036;-94
2023/04/29 03:25:16;;;;;;;5.63;2.60;;;;;;;13.04;56.43;98667.94;5071712;28;20040;-94
2023/04/29 03:27:42;;;;;;;5.88;2.42;;;;;;;13.12;56.71;98682.72;5064924;28;20127;-94
2023/04/29 03:30:08;;;;;;;6.78;2.40;;;;;;;13.32;56.53;98710.50;5059462;28;20079;-94
2023/04/29 03:32:34;;;;;;;5.13;2.40;;;;;;;13.14;57.15;98686.22;5060941;28;20048;-94
2023/04/29 03:35:00;;;;;;;4.00;2.53;;;;;;;13.04;57.47;98662.59;5060266;28;20076;-95
2023/04/29 03:37:26;;;;;;;5.18;2.38;;;;;;;13.19;57.49;98678.03;5063384;28;20428;-94
2023/04/29 03:39:53;;;;;;;5.07;2.60;;;;;;;13.24;58.57;98692.03;5071736;28;20044;-95
2023/04/29 03:42:20;;;;;;;4.00;2.25;;;;;;;12.93;59.31;98658.53;5060268;28;20040;-94
2023/04/29 03:44:45;;;;;;;5.20;2.60;;;;;;;13.03;60.54;98682.19;5070505;28;20071;-92
2023/04/29 03:47:12;;;;;;;5.38;2.60;;;;;;;12.87;61.95;98685.44;5073214;28;20045;-94
2023/04/29 03:49:38;;;;;;;4.70;2.40;;;;;;;12.74;62.73;98673.50;5067863;28;20044;-94
2023/04/29 03:52:05;;;;;;;6.22;2.40;;;;;;;12.53;63.63;98645.81;5066098;28;20101;-93
2023/04/29 03:54:31;;;;;;;7.80;2.40;;;;;;;12.70;63.88;98686.06;5059997;28;20102;-94
2023/04/29 03:56:59;;;;;;;4.13;2.38;;;;;;;12.53;63.58;98669.81;5066980;28;20048;-93
2023/04/29 03:59:25;;;;;;;5.07;2.50;;;;;;;12.60;63.73;98678.47;5076927;28;20456;-92
2023/04/29 04:01:52;;;;;;;7.68;2.63;;;;;;;12.59;64.04;98668.75;5073842;28;20016;-93
2023/04/29 04:04:18;;;;;;;3.97;2.38;;;;;;;12.51;65.15;98672.56;5059720;28;20047;-93
2023/04/29 04:06:50;;;;;;;5.03;2.38;;;;;;;12.34;66.35;98648.31;5058779;28;20131;-94
2023/04/29 04:09:15;;;;;;;6.28;2.60;;;;;;;12.43;66.68;98669.31;5058581;28;20090;-93
2023/04/29 04:11:41;;;;;;;4.07;2.20;;;;;;;12.23;67.38;98653.13;5059714;28;20048;-93
2023/04/29 04:14:09;;;;;;;7.20;2.50;;;;;;;12.28;68.16;98683.19;5060181;28;20045;-94
2023/04/29 04:16:35;;;;;;;6.22;2.65;;;;;;;12.32;67.49;98685.69;5059118;28;20052;-96
2023/04/29 04:19:01;;;;;;;5.03;2.92;;;;;;;12.15;68.04;98666.75;5059307;28;20048;-95
2023/04/29 04:21:28;;;;;;;6.15;2.72;;;;;;;12.09;69.86;98667.81;5059298;28;20049;-95
2023/04/29 04:23:54;;;;;;;5.10;2.30;;;;;;;12.35;69.59;98706.03;5059317;28;20143;-94
2023/04/29 04:26:21;;;;;;;5.88;2.80;;;;;;;12.35;69.54;98711.38;5059455;28;20076;-94
2023/04/29 04:28:47;;;;;;;4.50;2.20;;;;;;;12.36;70.32;98697.13;5059918;28;20040;-94
2023/04/29 04:31:15;;;;;;;6.68;2.85;;;;;;;12.16;69.75;98665.81;5059054;28;20367;-95
2023/04/29 04:33:41;;;;;;;8.60;2.67;;;;;;;12.25;69.31;98684.19;5059354;28;20049;-95
2023/04/29 04:36:07;;;;;;;7.82;2.70;;;;;;;12.25;69.89;98667.28;5070427;28;20127;-95
2023/04/29 04:38:33;;;;;;;4.35;2.70;;;;;;;12.36;70.77;98682.91;5059041;28;20219;-96
2023/04/29 04:40:59;;;;;;;5.53;2.63;;;;;;;12.26;71.44;98658.38;5059647;28;20048;-95
2023/04/29 04:43:25;;;;;;;4.78;3.05;;;;;;;12.38;71.66;98683.72;5059176;28;20070;-95
2023/04/29 04:45:51;;;;;;;7.80;3.10;;;;;;;12.26;72.19;98661.03;5058315;28;20108;-94
2023/04/29 04:48:19;;;;;;;7.68;3.58;;;;;;;12.25;72.29;98659.28;5062161;28;20473;-96
2023/04/29 04:50:45;;;;;;;7.70;3.28;;;;;;;12.22;73.11;98664.75;5076002;28;20045;-95
2023/04/29 04:53:11;;;;;;;6.55;3.10;;;;;;;12.15;73.91;98669.41;5062805;28;20041;-95
2023/04/29 04:55:36;;;;;;;6.75;2.90;;;;;;;12.22;75.05;98672.72;5058958;28;20453;-93
2023/04/29 04:58:02;;;;;;;8.98;3.25;;;;;;;12.58;75.05;98696.31;5059046;28;20108;-93
2023/04/29 05:00:28;;;;;;;5.93;3.10;;;;;;;12.61;73.91;98674.88;5058969;28;20071;-95
2023/04/29 05:02:54;;;;;;;8.80;3.28;;;;;;;12.76;72.32;98690.34;5058777;28;20510;-96
2023/04/29 05:05:21;;;;;;;6.13;3.17;;;;;;;13.07;71.50;98705.19;5060453;28;20048;-94
2023/04/29 05:07:47;;;;;;;7.53;3.38;;;;;;;13.02;70.26;98676.00;5058866;28;20068;-93
2023/04/29 05:10:13;;;;;;;7.70;3.40;;;;;;;13.26;68.99;98679.50;5059253;28;20052;-94
2023/04/29 05:12:39;;;;;;;7.22;3.58;;;;;;;13.30;68.23;98670.47;5058526;28;20051;-94
2023/04/29 05:15:06;;;;;;;6.20;3.42;;;;;;;13.30;68.33;98659.81;5058232;28;20131;-96
2023/04/29 05:17:33;;;;;;;6.53;3.20;;;;;;;13.48;68.04;98681.34;5068321;28;20044;-96
2023/04/29 05:19:59;;;;;;;8.45;3.22;;;;;;;13.64;67.62;98697.63;5058965;28;20033;-94
2023/04/29 05:22:26;;;;;;;8.00;3.25;;;;;;;13.50;67.32;98661.66;5058499;28;20043;-94
2023/04/29 05:24:54;;;;;;;7.40;3.22;;;;;;;13.73;66.85;98686.59;5057588;28;20063;-95
2023/04/29 05:27:21;;;;;;;7.15;3.35;;;;;;;13.67;66.42;98668.13;5058495;28;20048;-94
2023/04/29 05:29:47;;;;;;;7.07;3.10;;;;;;;13.71;67.04;98672.41;5058475;28;20139;-95
2023/04/29 05:32:13;;;;;;;6.47;3.10;;;;;;;13.62;66.82;98659.41;5058307;28;20144;-95
2023/04/29 05:34:39;;;;;;;8.02;3.30;;;;;;;13.64;66.71;98673.56;5058311;28;20041;-95
2023/04/29 05:37:05;;;;;;;8.40;3.78;;;;;;;13.64;66.32;98679.81;5074383;28;20040;-94
2023/04/29 05:39:32;;;;;;;6.65;3.60;;;;;;;13.68;66.58;98675.19;5074594;28;20131;-94
2023/04/29 05:41:58;;;;;;;6.07;3.30;;;;;;;13.81;66.28;98694.28;5074880;28;20040;-94
2023/04/29 05:44:24;;;;;;;9.05;3.90;;;;;;;13.65;66.37;98660.16;5075149;28;20041;-94
2023/04/29 05:46:50;;;;;;;7.97;3.50;;;;;;;13.92;65.60;98686.66;5075062;28;20037;-94
2023/04/29 05:49:16;;;;;;;11.65;4.25;;;;;;;14.15;65.08;98681.22;5075500;28;20063;-93
2023/04/29 05:51:42;;;;;;;8.32;4.28;;;;;;;14.36;64.94;98676.75;5075252;28;20086;-93
2023/04/29 05:54:08;;;;;;;11.18;4.68;;;;;;;14.78;64.89;98697.19;5063316;28;20049;-94
2023/04/29 05:56:35;;;;;;;8.90;4.43;;;;;;;14.79;63.19;98666.84;5058034;28;20044;-95
2023/04/29 05:59:01;;;;;;;7.88;4.03;;;;;;;14.87;62.81;98657.56;5057843;28;20498;-94
2023/04/29 06:01:27;;;;;;;8.93;4.20;;;;;;;15.01;61.89;98657.81;5059614;28;20036;-96
2023/04/29 06:03:53;;;;;;;9.43;4.25;;;;;;;15.19;61.21;98682.84;5059688;28;20052;-95
2023/04/29 06:06:19;;;;;;;7.93;4.20;;;;;;;15.09;61.25;98674.34;5058162;28;20048;-94
2023/04/29 06:08:45;;;;;;;10.50;4.22;;;;;;;15.30;61.23;98695.72;5061176;28;20489;-95
2023/04/29 06:11:11;;;;;;;9.57;4.63;;;;;;;15.31;60.50;98681.38;5067205;28;20045;-94
2023/04/29 06:13:38;;;;;;;8.60;4.90;;;;;;;15.82;59.64;98699.44;5078801;28;20051;-95
2023/04/29 06:16:06;;;;;;;10.35;4.20;;;;;;;16.13;58.42;98697.91;5071074;28;20090;-95
2023/04/29 06:18:32;;;;;;;17.88;6.18;;;;;;;16.00;58.72;98661.94;5062462;28;20064;-96
2023/04/29 06:20:58;;;;;;;14.15;6.28;;;;;;;16.12;57.53;98671.19;5062992;28;20044;-95
2023/04/29 06:23:24;;;;;;;11.75;5.90;;;;;;;16.05;57.50;98693.88;5061890;28;20478;-96
2023/04/29 06:25:50;;;;;;;10.57;3.97;;;;;;;15.98;56.11;98704.03;5074224;28;20045;-96
2023/04/29 06:28:16;;;;;;;9.27;3.83;;;;;;;15.89;57.89;98701.84;5071159;28;20072;-96
2023/04/29 06:30:45;;;;;;;7.50;4.00;;;;;;;15.71;57.01;98674.09;5062406;28;20041;-95
2023/04/29 06:33:12;;;;;;;9.88;3.30;;;;;;;15.74;57.96;98709.72;5062128;28;20068;-95
2023/04/29 06:35:39;;;;;;;13.68;4.22;;;;;;;15.28;57.54;98686.91;5077484;28;20024;-95
2023/04/29 06:38:07;;;;;;;7.88;3.78;;;;;;;15.10;57.10;98692.19;5078710;28;20040;-95
2023/04/29 06:40:32;;;;;;;9.05;4.45;;;;;;;15.03;57.78;98673.78;5078225;28;20052;-95
2023/04/29 06:42:58;;;;;;;6.32;3.38;;;;;;;15.42;57.46;98692.47;5077038;28;20097;-94
2023/04/29 06:45:24;;;;;;;9.25;3.65;;;;;;;15.74;56.16;98699.00;5077966;28;20045;-95
2023/04/29 06:47:51;;;;;;;5.85;3.35;;;;;;;16.17;54.12;98693.25;5077209;28;20132;-94
2023/04/29 06:50:17;;;;;;;8.13;3.38;;;;;;;16.51;52.64;98660.19;5073680;28;20529;-94
2023/04/29 06:52:43;;;;;;;8.75;3.75;;;;;;;17.17;51.24;98674.56;5061969;28;20044;-94
2023/04/29 06:55:10;;;;;;;8.75;3.40;;;;;;;17.16;49.61;98648.66;5062622;28;20441;-95
2023/04/29 06:57:36;;;;;;;8.70;3.60;;;;;;;17.61;49.45;98665.81;5061884;28;20063;-95
2023/04/29 07:00:03;;;;;;;6.95;3.47;;;;;;;17.83;48.82;98639.44;5061687;28;20509;-94
2023/04/29 07:02:28;;;;;;;6.45;3.88;;;;;;;18.15;47.70;98676.13;5061181;28;20044;-96
2023/04/29 07:04:56;;;;;;;8.90;4.35;;;;;;;18.02;48.48;98665.22;5060846;28;20036;-96
2023/04/29 07:07:22;;;;;;;9.35;4.35;;;;;;;17.60;48.88;98670.31;5073800;28;20132;-95
2023/04/29 07:09:50;;;;;;;10.63;4.00;;;;;;;17.36;49.13;98667.19;5062842;28;20060;-95
2023/04/29 07:12:16;;;;;;;9.43;3.90;;;;;;;17.38;47.88;98665.28;5065396;28;20417;-94
2023/04/29 07:14:42;;;;;;;8.00;3.78;;;;;;;17.23;48.35;98685.81;5070310;28;20072;-96
2023/04/29 07:17:08;;;;;;;8.15;4.22;;;;;;;17.32;48.24;98673.69;5061516;28;20075;-95
2023/04/29 07:19:34;;;;;;;6.65;4.13;;;;;;;17.27;46.81;98653.44;5060184;28;20098;-95
2023/04/29 07:22:02;;;;;;;9.68;3.97;;;;;;;17.50;45.36;98650.31;5060605;28;20044;-94
2023/04/29 07:24:28;;;;;;;8.57;3.58;;;;;;;18.12;44.99;98665.56;5061086;28;20104;-94
2023/04/29 07:26:55;;;;;;;6.60;3.80;;;;;;;18.37;43.10;98656.91;5073371;28;20071;-95
2023/04/29 07:29:20;;;;;;;7.25;3.58;;;;;;;18.51;41.49;98650.66;5069256;28;20052;-95
2023/04/29 07:31:47;;;;;;;7.70;3.63;;;;;;;18.54;41.36;98667.50;5078064;28;20482;-94
2023/04/29 07:34:12;;;;;;;7.85;3.97;;;;;;;17.94;42.49;98667.53;5078014;28;20055;-94
2023/04/29 07:36:38;;;;;;;6.35;3.33;;;;;;;18.46;41.92;98667.09;5072457;28;20037;-94
2023/04/29 07:39:06;;;;;;;7.55;3.80;;;;;;;18.67;40.97;98646.03;5076696;28;20131;-95
2023/04/29 07:41:31;;;;;;;8.57;3.80;;;;;;;18.90;41.46;98631.16;5068978;28;20543;-95
2023/04/29 07:43:58;;;;;;;8.35;4.00;;;;;;;19.37;40.68;98632.66;5065019;28;20036;-96
2023/04/29 07:46:24;;;;;;;9.48;4.05;;;;;;;19.33;40.29;98627.56;5079148;28;20401;-95
2023/04/29 07:48:50;;;;;;;6.82;3.50;;;;;;;19.59;40.92;98647.41;5065372;28;20040;-94
2023/04/29 07:51:16;;;;;;;8.73;3.85;;;;;;;19.80;40.01;98640.63;5061171;28;20048;-95
2023/04/29 07:53:42;;;;;;;8.68;3.42;;;;;;;20.09;38.49;98659.38;5063302;28;20044;-94
2023/04/29 07:56:10;;;;;;;5.78;3.33;;;;;;;19.88;37.32;98637.41;5062252;28;20041;-92
2023/04/29 07:58:35;;;;;;;8.30;3.40;;;;;;;19.85;38.14;98665.47;5065201;28;20060;-93
2023/04/29 08:01:05;;;;;;;5.07;2.67;;;;;;;19.79;36.52;98644.28;5063405;28;20091;-93
2023/04/29 08:03:31;;;;;;;4.28;2.85;;;;;;;19.85;35.81;98661.91;5062101;28;20036;-94
2023/04/29 08:06:00;;;;;;;6.47;2.63;;;;;;;19.99;36.08;98666.38;5059888;28;20044;-94
2023/04/29 08:08:26;;;;;;;;;;;;;;;20.31;35.06;98680.38;5067166;28;20036;-93
2023/04/29 08:10:51;;;;;;;7.57;2.85;;;;;;;20.23;37.29;98691.72;5060032;28;20327;-93
2023/04/29 08:13:19;;;;;;;6.47;2.70;;;;;;;20.28;37.33;98675.22;5077336;28;20047;-93
2023/04/29 08:15:45;;;;;;;8.23;3.05;;;;;;;20.11;37.17;98652.06;5072329;28;20084;-94
2023/04/29 08:18:10;;;;;;;4.78;3.03;;;;;;;20.11;37.36;98663.72;5059871;28;20446;-92
2023/04/29 08:20:36;;;;;;;7.72;2.90;;;;;;;19.31;38.06;98683.41;5071310;28;20045;-92
2023/04/29 08:23:02;;;;;;;5.95;2.72;;;;;;;19.31;37.94;98668.09;5060742;28;20063;-93
2023/04/29 08:25:29;;;;;;;13.98;2.72;;;;;;;19.81;36.32;98685.53;5067375;28;20071;-93
2023/04/29 08:27:55;;;;;;;5.13;2.20;;;;;;;19.96;37.52;98663.88;5059720;28;20053;-94
2023/04/29 08:30:22;;;;;;;7.93;3.00;;;;;;;20.12;36.43;98672.66;5059917;28;20045;-92
2023/04/29 08:32:48;;;;;;;8.60;2.70;;;;;;;19.61;36.37;98669.78;5055755;28;20079;-93
2023/04/29 08:35:14;;;;;;;3.80;2.20;;;;;;;19.56;37.58;98678.16;5048881;28;20395;-93
2023/04/29 08:37:40;;;;;;;4.80;2.40;;;;;;;19.70;37.25;98666.50;5075830;28;20131;-92
2023/04/29 08:40:10;;;;;;;5.15;2.70;;;;;;;20.14;36.54;98659.94;5066948;28;20454;-93
2023/04/29 08:42:36;;;;;;;5.82;2.75;;;;;;;20.56;35.57;98681.38;5067184;28;20101;-93
2023/04/29 08:45:03;;;;;;;5.00;2.40;;;;;;;20.86;36.40;98673.88;5076185;28;20460;-94
2023/04/29 08:47:31;;;;;;;7.60;3.30;;;;;;;21.52;35.53;98671.00;5075872;28;20043;-94
2023/04/29 08:50:02;;;;;;;7.18;2.80;;;;;;;20.97;34.59;98658.72;5076398;28;20036;-94
2023/04/29 08:52:29;;;;;;;7.53;2.97;;;;;;;20.08;36.64;98671.13;5060227;28;20059;-95
2023/04/29 08:54:55;;;;;;;6.10;2.90;;;;;;;20.40;36.08;98638.38;5066278;28;20493;-94
2023/04/29 08:57:24;;;;;;;4.65;2.67;;;;;;;20.62;36.64;98651.28;5076084;28;20047;-94
2023/04/29 08:59:50;;;;;;;;;;;;;;;20.90;35.66;98666.41;5076364;28;20131;-94
2023/04/29 09:02:19;;;;;;;6.47;2.78;;;;;;;20.86;35.46;98648.69;5075567;28;19944;-94
2023/04/29 09:04:54;;;;;;;7.07;2.80;;;;;;;20.49;35.52;98643.13;5076457;28;20044;-94
2023/04/29 09:07:21;;;;;;;4.30;2.63;;;;;;;20.48;36.22;98644.13;5075523;28;20041;-94
2023/04/29 09:09:48;;;;;;;6.32;2.55;;;;;;;20.78;37.24;98672.69;5075827;28;20413;-93
2023/04/29 09:12:14;;;;;;;6.15;2.60;;;;;;;20.09;36.80;98645.91;5076804;28;20486;-94
2023/04/29 09:14:40;;;;;;;5.18;2.38;;;;;;;20.49;35.42;98675.53;5076075;28;20032;-94
2023/04/29 09:17:06;;;;;;;5.57;2.50;;;;;;;20.35;34.89;98638.69;5054448;28;20136;-94
2023/04/29 09:19:33;;;;;;;5.38;2.45;;;;;;;20.45;34.29;98672.22;5058146;28;20071;-92
2023/04/29 09:22:01;;;;;;;8.40;3.08;;;;;;;20.20;34.49;98658.66;5058351;28;20066;-94
2023/04/29 09:24:28;;;;;;;7.40;2.90;;;;;;;20.30;31.74;98671.44;5060547;28;20046;-93
2023/04/29 09:26:55;;;;;;;4.72;2.33;;;;;;;20.21;31.86;98657.69;5058863;28;20048;-95
2023/04/29 09:29:21;;;;;;;7.03;2.65;;;;;;;20.19;32.33;98649.69;5059258;28;20045;-95
2023/04/29 09:31:48;;;;;;;7.15;2.65;;;;;;;20.08;32.28;98646.84;5059851;28;20498;-95
2023/04/29 09:34:15;;;;;;;7.25;3.33;;;;;;;20.07;33.46;98661.31;5059030;28;20045;-95
2023/04/29 09:36:46;;;;;;;8.30;2.67;;;;;;;19.89;34.38;98666.13;5059342;28;20040;-95
2023/04/29 09:39:16;;;;;;;4.22;2.40;;;;;;;19.85;33.66;98651.97;5074657;28;20036;-94
2023/04/29 09:41:58;;;;;;;4.55;2.20;;;;;;;19.82;33.87;98673.78;5061975;28;20044;-95
2023/04/29 09:44:26;;;;;;;3.33;1.90;;;;;;;19.68;35.15;98647.66;5064372;28;20139;-95
2023/04/29 09:46:54;;;;;;;4.77;2.50;;;;;;;19.79;34.79;98687.47;5061153;28;20067;-95
2023/04/29 09:49:25;;;;;;;3.50;2.00;;;;;;;19.30;34.78;98644.81;5065627;28;20041;-96
2023/04/29 09:51:52;;;;;;;5.28;2.03;;;;;;;19.27;35.76;98645.00;5058532;28;20048;-94
2023/04/29 09:54:21;;;;;;;8.00;2.45;;;;;;;19.34;35.23;98670.56;5058153;28;20076;-94
2023/04/29 09:56:48;;;;;;;;;;;;;;;19.46;36.81;98694.06;5058179;28;20040;-93
2023/04/29 09:59:14;;;;;;;5.18;2.20;;;;;;;19.41;36.79;98692.63;5058723;28;19921;-93
2023/04/29 10:01:40;;;;;;;4.22;2.05;;;;;;;19.34;36.30;98675.13;5076041;28;20082;-93
2023/04/29 10:04:10;;;;;;;5.95;2.17;;;;;;;19.34;37.19;98686.75;5073344;28;20051;-92
2023/04/29 10:06:37;;;;;;;6.68;2.50;;;;;;;19.12;36.59;98670.22;5066403;28;20041;-96
2023/04/29 10:09:05;;;;;;;5.07;2.25;;;;;;;18.99;36.94;98673.69;5062196;28;20040;-92
2023/04/29 10:11:33;;;;;;;4.53;2.55;;;;;;;18.84;37.32;98677.34;5062532;28;20037;-95
2023/04/29 10:13:59;;;;;;;7.57;2.83;;;;;;;18.85;38.69;98665.63;5070352;28;20079;-94
2023/04/29 10:16:28;;;;;;;11.75;3.22;;;;;;;18.88;38.40;98684.28;5055086;28;20056;-95
2023/04/29 10:18:58;;;;;;;7.20;3.20;;;;;;;18.58;37.35;98649.31;5055433;28;20043;-94
2023/04/29 10:21:30;;;;;;;4.85;2.20;;;;;;;18.66;37.60;98671.25;5055125;28;20541;-94
2023/04/29 10:23:57;;;;;;;5.65;2.60;;;;;;;18.59;37.46;98664.53;5055430;28;20095;-93
2023/04/29 10:26:27;;;;;;;5.33;2.50;;;;;;;18.76;37.59;98680.50;5054634;28;20128;-94
2023/04/29 10:28:55;;;;;;;3.83;2.30;;;;;;;18.71;37.89;98663.75;5053723;28;20065;-93
2023/04/29 10:31:24;;;;;;;4.68;2.60;;;;;;;18.70;37.81;98645.00;5057071;28;20064;-93
2023/04/29 10:33:54;;;;;;;3.95;2.53;;;;;;;18.96;38.08;98656.88;5055955;28;20040;-94
2023/04/29 10:36:21;;;;;;;7.60;2.80;;;;;;;19.07;37.84;98628.28;5054423;28;20049;-91
2023/04/29 10:38:51;;;;;;;8.10;2.70;;;;;;;19.23;37.65;98630.81;5052583;28;20063;-93
2023/04/29 10:41:23;;;;;;;4.93;2.50;;;;;;;19.22;37.63;98657.91;5054608;28;20044;-92
2023/04/29 10:43:50;;;;;;;9.90;2.70;;;;;;;19.10;38.22;98635.28;5054016;28;20140;-93
2023/04/29 10:46:22;;;;;;;6.13;2.78;;;;;;;19.07;38.00;98632.81;5053653;28;20502;-95
2023/04/29 10:48:51;;;;;;;9.45;2.88;;;;;;;18.99;38.75;98635.97;5051940;28;20051;-94
2023/04/29 10:51:34;;;;;;;;;;;;;;;19.13;39.37;98651.28;5051720;28;20075;-93
2023/04/29 10:54:05;;;;;;;8.68;2.58;;;;;;;18.91;39.60;98643.69;5055168;28;19920;-93
2023/04/29 10:56:42;;;;;;;5.78;3.28;;;;;;;18.88;39.13;98663.59;5057853;28;20056;-93
2023/04/29 10:59:13;;;;;;;6.22;2.60;;;;;;;18.59;39.39;98646.53;5057679;28;20128;-94
2023/04/29 11:01:45;;;;;;;5.00;2.40;;;;;;;18.65;39.58;98639.88;5057013;28;20051;-93
2023/04/29 11:04:11;;;;;;;4.97;2.35;;;;;;;18.72;40.44;98638.56;5057054;28;20041;-93
2023/04/29 11:06:41;;;;;;;5.18;2.55;;;;;;;18.79;39.77;98649.84;5056654;28;20028;-92
2023/04/29 11:09:11;;;;;;;5.68;2.53;;;;;;;18.79;39.69;98639.06;5057364;28;20049;-95
2023/04/29 11:11:45;;;;;;;8.15;2.58;;;;;;;18.99;39.50;98662.91;5057493;28;20112;-93
2023/04/29 11:14:12;;;;;;;5.40;2.47;;;;;;;18.72;40.65;98635.00;5054760;28;20127;-93
2023/04/29 11:16:49;;;;;;;5.25;3.00;;;;;;;18.68;40.72;98653.19;5053502;28;20044;-94
2023/04/29 11:19:17;;;;;;;5.93;2.78;;;;;;;18.68;41.61;98651.34;5054782;28;20060;-93
2023/04/29 11:21:45;;;;;;;6.60;3.10;;;;;;;18.60;40.64;98668.94;5054091;28;20566;-93
2023/04/29 11:24:11;;;;;;;9.23;3.27;;;;;;;18.40;40.91;98664.78;5056586;28;20044;-93
2023/04/29 11:26:37;;;;;;;5.22;3.20;;;;;;;18.33;41.80;98655.34;5056434;28;20037;-94
2023/04/29 11:29:04;;;;;;;7.03;3.33;;;;;;;18.22;41.62;98675.69;5056960;28;20494;-94
2023/04/29 11:31:30;;;;;;;7.05;3.00;;;;;;;18.07;42.93;98676.63;5056596;28;20390;-93
2023/04/29 11:33:58;;;;;;;6.90;2.80;;;;;;;18.25;44.34;98682.72;5058170;28;20498;-94